Time;durP1;ratioP1;P1;durP2;ratioP2;P2;SDS_P1;SDS_P2;PMS_P1;PMS_P2;Temp;Humidity;BMP_temperature;BMP_pressure;BME280_temperature;BME280_humidity;BME280_pressure;Samples;Min_cycle;Max_cycle;Signal;HPM_P1;HPM_P2
2022/01/11 00:01:14;;;;;;;26.27;15.70;;;;;;;;;;5114351;28;20518;-66
2022/01/11 00:03:41;;;;;;;24.05;16.77;;;;;;;;;;5123967;28;20540;-66
2022/01/11 00:06:20;;;;;;;24.55;16.20;;;;;;;;;;5122352;28;20207;-66
2022/01/11 00:08:48;;;;;;;26.75;17.42;;;;;;;;;;5123400;28;20456;-66
2022/01/11 00:11:17;;;;;;;23.58;16.25;;;;;;;;;;5111656;28;20395;-66
2022/01/11 00:13:43;;;;;;;27.42;17.10;;;;;;;;;;5123495;28;20542;-66
2022/01/11 00:16:11;;;;;;;30.90;17.92;;;;;;;;;;5122864;28;20218;-66
2022/01/11 00:18:38;;;;;;;28.38;17.63;;;;;;;;;;5123095;28;20195;-66
2022/01/11 00:21:05;;;;;;;30.63;16.98;;;;;;;;;;5122722;28;20203;-66
2022/01/11 00:26:19;;;;;;;28.73;17.90;;;;;;;;;;5123115;28;20195;-66
2022/01/11 00:28:46;;;;;;;31.17;19.70;;;;;;;;;;5123325;28;20199;-66
2022/01/11 00:31:12;;;;;;;30.50;18.48;;;;;;;;;;5111492;28;20211;-66
2022/01/11 00:33:43;;;;;;;36.25;19.08;;;;;;;;;;5116305;28;20231;-66
2022/01/11 00:36:11;;;;;;;37.38;19.42;;;;;;;;;;5122839;28;20211;-65
2022/01/11 00:38:38;;;;;;;39.40;20.55;;;;;;;;;;5123342;28;20421;-66
2022/01/11 00:41:06;;;;;;;33.88;20.83;;;;;;;;;;5122342;28;20195;-65
2022/01/11 00:43:35;;;;;;;31.02;20.05;;;;;;;;;;5122818;28;20380;-66
2022/01/11 00:46:02;;;;;;;34.22;19.67;;;;;;;;;;5122139;28;20215;-66
2022/01/11 00:48:29;;;;;;;29.88;19.08;;;;;;;;;;5122931;28;20195;-66
2022/01/11 00:50:56;;;;;;;31.70;18.88;;;;;;;;;;5122376;28;20218;-66
2022/01/11 00:53:23;;;;;;;30.55;17.75;;;;;;;;;;5122654;28;20235;-66
2022/01/11 00:55:50;;;;;;;25.77;18.30;;;;;;;;;;5121642;28;20207;-66
2022/01/11 00:58:17;;;;;;;25.48;17.17;;;;;;;;;;5123299;28;20195;-66
2022/01/11 01:00:46;;;;;;;25.80;17.27;;;;;;;;;;5111417;28;20387;-66
2022/01/11 01:03:12;;;;;;;24.27;17.45;;;;;;;;;;5102327;28;20196;-66
2022/01/11 01:05:39;;;;;;;30.25;18.02;;;;;;;;;;5119571;28;20383;-66
2022/01/11 01:08:06;;;;;;;28.60;16.95;;;;;;;;;;5122764;28;20195;-66
2022/01/11 01:10:37;;;;;;;31.50;17.40;;;;;;;;;;5122062;28;20491;-66
2022/01/11 01:13:05;;;;;;;33.40;18.73;;;;;;;;;;5122647;28;20334;-66
2022/01/11 01:15:34;;;;;;;28.45;17.20;;;;;;;;;;5121743;28;20210;-66
2022/01/11 01:18:02;;;;;;;31.30;17.65;;;;;;;;;;5122915;28;20273;-66
2022/01/11 01:20:29;;;;;;;28.38;17.33;;;;;;;;;;5121767;28;20240;-66
2022/01/11 01:22:56;;;;;;;27.15;16.67;;;;;;;;;;5122741;28;20201;-66
2022/01/11 01:25:24;;;;;;;30.67;18.80;;;;;;;;;;5120823;28;20195;-66
2022/01/11 01:27:51;;;;;;;27.55;18.42;;;;;;;;;;5122612;28;20262;-66
2022/01/11 01:30:17;;;;;;;31.20;18.02;;;;;;;;;;5114337;28;20192;-66
2022/01/11 01:32:45;;;;;;;36.80;18.42;;;;;;;;;;5102178;28;20199;-66
2022/01/11 01:35:13;;;;;;;31.65;18.52;;;;;;;;;;5103290;28;20230;-66
2022/01/11 01:37:40;;;;;;;32.83;19.15;;;;;;;;;;5122537;28;20409;-66
2022/01/11 01:40:07;;;;;;;29.95;18.63;;;;;;;;;;5121575;28;20456;-66
2022/01/11 01:42:34;;;;;;;28.80;17.85;;;;;;;;;;5122437;28;20195;-67
2022/01/11 01:45:02;;;;;;;31.77;17.48;;;;;;;;;;5121969;28;20542;-66
2022/01/11 01:47:29;;;;;;;27.80;18.48;;;;;;;;;;5122077;28;20426;-66
2022/01/11 01:49:55;;;;;;;30.35;18.60;;;;;;;;;;5122092;28;20191;-66
2022/01/11 01:52:24;;;;;;;31.17;18.50;;;;;;;;;;5120214;28;20195;-66
2022/01/11 01:54:51;;;;;;;28.50;18.55;;;;;;;;;;5101738;28;20196;-66
2022/01/11 01:57:18;;;;;;;30.13;19.30;;;;;;;;;;5112917;28;20223;-66
2022/01/11 01:59:45;;;;;;;27.80;18.63;;;;;;;;;;5121403;28;20191;-66
2022/01/11 02:02:13;;;;;;;29.05;18.30;;;;;;;;;;5125525;28;20413;-66
2022/01/11 02:04:40;;;;;;;30.73;18.80;;;;;;;;;;5125537;28;20364;-66
2022/01/11 02:07:06;;;;;;;27.52;19.02;;;;;;;;;;5124755;28;20402;-66
2022/01/11 02:09:34;;;;;;;29.30;18.77;;;;;;;;;;5125444;28;20187;-66
2022/01/11 02:12:01;;;;;;;28.83;19.10;;;;;;;;;;5126039;28;20195;-66
2022/01/11 02:14:27;;;;;;;28.63;19.02;;;;;;;;;;5125491;28;20195;-66
2022/01/11 02:16:56;;;;;;;27.25;18.70;;;;;;;;;;5120924;28;20269;-66
2022/01/11 02:19:22;;;;;;;31.33;18.48;;;;;;;;;;5124457;28;20414;-66
2022/01/11 02:21:50;;;;;;;32.17;19.02;;;;;;;;;;5121586;28;20198;-66
2022/01/11 02:24:18;;;;;;;27.02;17.92;;;;;;;;;;5105263;28;20195;-66
2022/01/11 02:26:45;;;;;;;26.30;17.92;;;;;;;;;;5105034;28;20192;-66
2022/01/11 02:29:11;;;;;;;28.95;18.35;;;;;;;;;;5123841;28;20409;-66
2022/01/11 02:31:38;;;;;;;28.83;17.40;;;;;;;;;;5125091;28;20202;-66
2022/01/11 02:34:05;;;;;;;30.25;18.05;;;;;;;;;;5125737;28;20195;-66
2022/01/11 02:36:32;;;;;;;24.40;17.55;;;;;;;;;;5124316;28;20207;-66
2022/01/11 02:39:00;;;;;;;29.17;18.08;;;;;;;;;;5123145;28;20202;-66
2022/01/11 02:41:27;;;;;;;29.13;18.10;;;;;;;;;;5124568;28;20210;-66
2022/01/11 02:43:54;;;;;;;29.88;18.02;;;;;;;;;;5123684;28;20202;-66
2022/01/11 02:46:21;;;;;;;27.92;18.30;;;;;;;;;;5124724;28;20212;-66
2022/01/11 02:48:47;;;;;;;30.30;17.85;;;;;;;;;;5123414;28;20206;-66
2022/01/11 02:51:14;;;;;;;24.67;18.25;;;;;;;;;;5105951;28;20195;-66
2022/01/11 02:53:40;;;;;;;30.35;18.63;;;;;;;;;;5104793;28;20203;-66
2022/01/11 02:56:08;;;;;;;27.80;18.40;;;;;;;;;;5103932;28;20196;-66
2022/01/11 02:58:35;;;;;;;30.33;19.40;;;;;;;;;;5104838;28;20196;-66
2022/01/11 03:01:01;;;;;;;29.35;18.33;;;;;;;;;;5120655;28;20195;-66
2022/01/11 03:03:28;;;;;;;32.75;18.88;;;;;;;;;;5125141;28;20529;-66
2022/01/11 03:05:56;;;;;;;29.33;18.40;;;;;;;;;;5124643;28;20202;-66
2022/01/11 03:08:23;;;;;;;29.00;19.58;;;;;;;;;;5124464;28;20191;-66
2022/01/11 03:10:50;;;;;;;29.98;18.98;;;;;;;;;;5110360;28;20203;-66
2022/01/11 03:13:19;;;;;;;31.58;19.95;;;;;;;;;;5103285;28;20195;-66
2022/01/11 03:15:46;;;;;;;32.35;18.40;;;;;;;;;;5104066;28;20195;-66
2022/01/11 03:18:12;;;;;;;28.30;18.60;;;;;;;;;;5104173;28;20220;-66
2022/01/11 03:20:39;;;;;;;30.50;19.00;;;;;;;;;;5116624;28;20226;-66
2022/01/11 03:23:06;;;;;;;28.75;17.98;;;;;;;;;;5124458;28;20195;-66
2022/01/11 03:25:33;;;;;;;29.80;17.50;;;;;;;;;;5124177;28;20502;-66
2022/01/11 03:28:01;;;;;;;26.25;17.08;;;;;;;;;;5124650;28;20191;-66
2022/01/11 03:30:29;;;;;;;28.83;18.10;;;;;;;;;;5123994;28;20191;-67
2022/01/11 03:32:57;;;;;;;29.02;19.42;;;;;;;;;;5124292;28;20396;-67
2022/01/11 03:35:23;;;;;;;28.33;18.65;;;;;;;;;;5123578;28;20191;-68
2022/01/11 03:37:54;;;;;;;28.98;18.08;;;;;;;;;;5124250;28;20526;-67
2022/01/11 03:40:22;;;;;;;28.20;17.65;;;;;;;;;;5123940;28;20195;-67
2022/01/11 03:42:48;;;;;;;28.15;17.58;;;;;;;;;;5124162;28;20192;-66
2022/01/11 03:45:20;;;;;;;32.25;17.95;;;;;;;;;;5123614;28;20527;-66
2022/01/11 03:47:48;;;;;;;28.05;17.52;;;;;;;;;;5112729;28;20188;-67
2022/01/11 03:50:18;;;;;;;28.50;16.85;;;;;;;;;;5111620;28;20194;-67
2022/01/11 03:52:58;;;;;;;25.77;16.80;;;;;;;;;;5124094;28;20201;-67
2022/01/11 03:55:43;;;;;;;28.25;16.98;;;;;;;;;;5123503;28;20499;-67
2022/01/11 03:58:09;;;;;;;27.45;17.13;;;;;;;;;;5123728;28;20268;-67
2022/01/11 04:00:35;;;;;;;30.50;17.75;;;;;;;;;;5112507;28;20192;-67
2022/01/11 04:03:04;;;;;;;27.13;17.92;;;;;;;;;;5123601;28;20195;-67
2022/01/11 04:05:34;;;;;;;25.77;17.13;;;;;;;;;;5123337;28;20248;-67
2022/01/11 04:08:00;;;;;;;26.88;16.88;;;;;;;;;;5123897;28;20198;-66
2022/01/11 04:10:27;;;;;;;29.98;17.90;;;;;;;;;;5119336;28;20505;-65
2022/01/11 04:12:53;;;;;;;31.08;17.80;;;;;;;;;;5103743;28;20202;-66
2022/01/11 04:15:20;;;;;;;28.27;17.20;;;;;;;;;;5114499;28;20199;-66
2022/01/11 04:17:46;;;;;;;29.05;17.63;;;;;;;;;;5123136;28;20214;-67
2022/01/11 04:20:14;;;;;;;28.95;17.77;;;;;;;;;;5121330;28;20202;-67
2022/01/11 04:22:41;;;;;;;27.30;17.98;;;;;;;;;;5103090;28;20203;-67
2022/01/11 04:25:07;;;;;;;26.33;17.02;;;;;;;;;;5101998;28;20196;-67
2022/01/11 04:27:34;;;;;;;31.88;18.20;;;;;;;;;;5116027;28;20191;-67
2022/01/11 04:30:03;;;;;;;30.15;18.48;;;;;;;;;;5125617;28;20206;-69
2022/01/11 04:32:31;;;;;;;30.40;18.08;;;;;;;;;;5109085;28;20207;-69
2022/01/11 04:34:57;;;;;;;25.58;17.63;;;;;;;;;;5108235;28;20230;-69
2022/01/11 04:37:25;;;;;;;29.98;19.30;;;;;;;;;;5108782;28;20220;-68
2022/01/11 04:39:52;;;;;;;25.67;18.08;;;;;;;;;;5109027;28;20188;-68
2022/01/11 04:42:18;;;;;;;30.58;17.60;;;;;;;;;;5127740;28;20198;-68
2022/01/11 04:44:44;;;;;;;29.23;19.13;;;;;;;;;;5128382;28;20222;-69
2022/01/11 04:47:11;;;;;;;31.33;19.55;;;;;;;;;;5129154;28;20383;-69
2022/01/11 04:49:37;;;;;;;34.28;19.70;;;;;;;;;;5129276;28;20206;-69
2022/01/11 04:52:04;;;;;;;35.03;20.85;;;;;;;;;;5128828;28;20191;-69
2022/01/11 04:54:32;;;;;;;31.38;19.23;;;;;;;;;;5128731;28;20202;-69
2022/01/11 04:56:58;;;;;;;26.80;18.25;;;;;;;;;;5128509;28;20219;-69
2022/01/11 04:59:27;;;;;;;31.33;18.23;;;;;;;;;;5129206;28;20381;-69
2022/01/11 05:01:53;;;;;;;27.50;18.42;;;;;;;;;;5128597;28;20195;-69
2022/01/11 05:04:19;;;;;;;35.13;19.83;;;;;;;;;;5124669;28;20195;-69
2022/01/11 05:06:46;;;;;;;25.42;18.27;;;;;;;;;;5102990;28;20203;-69
2022/01/11 05:09:12;;;;;;;32.15;19.15;;;;;;;;;;5116407;28;20203;-69
2022/01/11 05:11:40;;;;;;;28.85;18.60;;;;;;;;;;5109956;28;20192;-69
2022/01/11 05:14:06;;;;;;;32.13;19.38;;;;;;;;;;5102307;28;20203;-69
2022/01/11 05:16:33;;;;;;;34.22;19.83;;;;;;;;;;5101754;28;20196;-69
2022/01/11 05:18:59;;;;;;;29.50;19.02;;;;;;;;;;5101928;28;20461;-71
2022/01/11 05:21:25;;;;;;;29.52;19.00;;;;;;;;;;5112824;28;20195;-70
2022/01/11 05:23:52;;;;;;;28.05;18.90;;;;;;;;;;5122821;28;20864;-69
2022/01/11 05:26:18;;;;;;;29.15;18.77;;;;;;;;;;5122246;28;20202;-69
2022/01/11 05:28:46;;;;;;;27.90;18.30;;;;;;;;;;5122895;28;20406;-69
2022/01/11 05:31:12;;;;;;;28.23;18.50;;;;;;;;;;5113693;28;20518;-69
2022/01/11 05:33:39;;;;;;;28.52;18.45;;;;;;;;;;5102648;28;20487;-69
2022/01/11 05:36:06;;;;;;;32.50;18.58;;;;;;;;;;5113013;28;20499;-69
2022/01/11 05:38:32;;;;;;;27.25;17.52;;;;;;;;;;5131647;28;20223;-69
2022/01/11 05:40:58;;;;;;;24.77;16.65;;;;;;;;;;5124563;28;20199;-69
2022/01/11 05:43:25;;;;;;;27.42;17.10;;;;;;;;;;5110683;28;20200;-69
2022/01/11 05:45:53;;;;;;;30.15;17.75;;;;;;;;;;5110531;28;20216;-68
2022/01/11 05:48:20;;;;;;;30.30;18.88;;;;;;;;;;5111031;28;20191;-68
2022/01/11 05:50:47;;;;;;;30.48;18.30;;;;;;;;;;5115141;28;20195;-68
2022/01/11 05:53:13;;;;;;;28.25;17.05;;;;;;;;;;5131389;28;20293;-68
2022/01/11 05:55:40;;;;;;;29.00;17.85;;;;;;;;;;5130586;27;20191;-68
2022/01/11 05:58:06;;;;;;;33.65;19.38;;;;;;;;;;5126358;28;20211;-68
2022/01/11 06:00:33;;;;;;;32.17;18.90;;;;;;;;;;5128449;28;20195;-68
2022/01/11 06:03:00;;;;;;;29.90;17.98;;;;;;;;;;5110973;28;20233;-68
2022/01/11 06:05:27;;;;;;;30.30;18.50;;;;;;;;;;5109745;28;20203;-68
2022/01/11 06:07:53;;;;;;;25.65;17.92;;;;;;;;;;5106686;28;20192;-68
2022/01/11 06:10:20;;;;;;;28.15;18.48;;;;;;;;;;5105775;28;20241;-68
2022/01/11 06:12:46;;;;;;;28.42;19.15;;;;;;;;;;5125908;28;20195;-69
2022/01/11 06:15:13;;;;;;;26.55;17.45;;;;;;;;;;5125595;28;20203;-69
2022/01/11 06:17:39;;;;;;;29.08;18.00;;;;;;;;;;5125788;28;20215;-69
2022/01/11 06:20:08;;;;;;;28.60;18.60;;;;;;;;;;5125373;28;20417;-69
2022/01/11 06:22:35;;;;;;;27.92;18.83;;;;;;;;;;5106283;28;20195;-69
2022/01/11 06:25:05;;;;;;;28.35;20.05;;;;;;;;;;5104710;28;20205;-69
2022/01/11 06:27:31;;;;;;;27.55;18.45;;;;;;;;;;5105377;28;20523;-69
2022/01/11 06:29:58;;;;;;;26.65;16.98;;;;;;;;;;5114966;28;20309;-68
2022/01/11 06:32:24;;;;;;;34.95;19.08;;;;;;;;;;5113996;27;20206;-68
2022/01/11 06:34:52;;;;;;;25.98;17.40;;;;;;;;;;5118005;27;20525;-66
2022/01/11 06:37:20;;;;;;;25.95;17.80;;;;;;;;;;5115839;27;20209;-65
2022/01/11 06:39:46;;;;;;;28.40;18.50;;;;;;;;;;5119100;28;20550;-65
2022/01/11 06:42:13;;;;;;;25.67;17.50;;;;;;;;;;5118791;28;20214;-65
2022/01/11 06:44:39;;;;;;;27.23;18.23;;;;;;;;;;5118659;28;20227;-65
2022/01/11 06:47:06;;;;;;;22.70;17.17;;;;;;;;;;5108586;28;20214;-65
2022/01/11 06:49:33;;;;;;;27.35;17.85;;;;;;;;;;5132331;27;20202;-65
2022/01/11 06:52:01;;;;;;;25.95;17.67;;;;;;;;;;5139414;27;20410;-65
2022/01/11 06:54:29;;;;;;;30.27;19.60;;;;;;;;;;5139192;27;20238;-68
2022/01/11 06:56:55;;;;;;;38.25;21.75;;;;;;;;;;5121781;27;20207;-67
2022/01/11 06:59:22;;;;;;;31.20;19.42;;;;;;;;;;5115944;28;20231;-67
2022/01/11 07:01:49;;;;;;;35.20;21.15;;;;;;;;;;5119084;28;20207;-69
2022/01/11 07:04:24;;;;;;;33.97;20.55;;;;;;;;;;5119326;28;20210;-70
2022/01/11 07:06:51;;;;;;;33.33;20.90;;;;;;;;;;5118234;28;20479;-70
2022/01/11 07:09:17;;;;;;;33.72;21.23;;;;;;;;;;5111411;28;20261;-70
2022/01/11 07:11:48;;;;;;;35.47;21.25;;;;;;;;;;5118471;28;20232;-55
2022/01/11 07:14:14;;;;;;;38.30;23.48;;;;;;;;;;5118595;28;20236;-58
2022/01/11 07:16:41;;;;;;;39.22;23.42;;;;;;;;;;5118244;28;20564;-56
2022/01/11 07:19:08;;;;;;;41.33;25.23;;;;;;;;;;5116410;28;20460;-58
2022/01/11 07:21:35;;;;;;;42.60;26.45;;;;;;;;;;5118107;28;20484;-58
2022/01/11 07:24:01;;;;;;;42.97;26.25;;;;;;;;;;5118299;28;20442;-55
2022/01/11 07:26:28;;;;;;;37.53;26.02;;;;;;;;;;5121489;27;20660;-57
2022/01/11 07:28:56;;;;;;;39.53;25.20;;;;;;;;;;5103223;28;20211;-56
2022/01/11 07:31:22;;;;;;;37.00;23.85;;;;;;;;;;5105107;28;20239;-57
2022/01/11 07:33:49;;;;;;;43.65;23.88;;;;;;;;;;5112091;28;20207;-54
2022/01/11 07:36:15;;;;;;;33.53;22.77;;;;;;;;;;5111859;27;20232;-54
2022/01/11 07:38:41;;;;;;;36.03;23.15;;;;;;;;;;5122121;27;20227;-54
2022/01/11 07:41:08;;;;;;;33.33;22.00;;;;;;;;;;5116906;28;20211;-55
2022/01/11 07:43:34;;;;;;;29.38;19.60;;;;;;;;;;5109236;28;20224;-59
2022/01/11 07:46:02;;;;;;;29.25;19.52;;;;;;;;;;5106103;28;20223;-56
2022/01/11 07:48:28;;;;;;;32.28;20.38;;;;;;;;;;5110329;28;20202;-56
2022/01/11 07:50:55;;;;;;;29.63;19.55;;;;;;;;;;5108431;28;20239;-56
2022/01/11 07:53:21;;;;;;;31.25;18.92;;;;;;;;;;5117700;28;20203;-56
2022/01/11 07:55:48;;;;;;;37.55;18.85;;;;;;;;;;5116655;28;20207;-54
2022/01/11 07:58:14;;;;;;;34.20;19.73;;;;;;;;;;5117196;28;20589;-56
2022/01/11 08:00:40;;;;;;;34.85;20.40;;;;;;;;;;5108512;28;20501;-54
2022/01/11 08:03:08;;;;;;;35.25;20.33;;;;;;;;;;5097338;28;20214;-54
2022/01/11 08:05:35;;;;;;;34.22;20.13;;;;;;;;;;5096670;28;20393;-55
2022/01/11 08:08:01;;;;;;;34.83;20.52;;;;;;;;;;5097130;28;20538;-54
2022/01/11 08:10:28;;;;;;;33.90;20.08;;;;;;;;;;5123628;27;20251;-57
2022/01/11 08:12:54;;;;;;;30.15;19.67;;;;;;;;;;5116368;28;20211;-55
2022/01/11 08:15:21;;;;;;;31.73;19.58;;;;;;;;;;5116661;28;20245;-56
2022/01/11 08:17:47;;;;;;;35.17;20.60;;;;;;;;;;5117119;28;20207;-56
2022/01/11 08:20:16;;;;;;;29.42;19.45;;;;;;;;;;5116304;28;20221;-57
2022/01/11 08:22:43;;;;;;;36.13;19.88;;;;;;;;;;5105479;28;20466;-55
2022/01/11 08:25:10;;;;;;;28.90;19.17;;;;;;;;;;5113091;27;20283;-56
2022/01/11 08:27:37;;;;;;;34.85;20.40;;;;;;;;;;5116639;28;20415;-57
2022/01/11 08:30:05;;;;;;;33.28;19.38;;;;;;;;;;5117025;28;20691;-56
2022/01/11 08:32:31;;;;;;;31.02;20.00;;;;;;;;;;5111626;27;20234;-57
2022/01/11 08:34:57;;;;;;;29.85;18.83;;;;;;;;;;5116311;28;20388;-57
2022/01/11 08:37:25;;;;;;;30.23;20.02;;;;;;;;;;5110670;28;20200;-57
2022/01/11 08:39:52;;;;;;;28.92;18.75;;;;;;;;;;5096725;28;20254;-54
2022/01/11 08:42:19;;;;;;;29.65;19.67;;;;;;;;;;5110161;28;20221;-57
2022/01/11 08:44:46;;;;;;;29.92;19.45;;;;;;;;;;5116016;28;20223;-57
2022/01/11 08:47:13;;;;;;;29.33;20.60;;;;;;;;;;5117028;28;20520;-57
2022/01/11 08:49:39;;;;;;;35.53;19.58;;;;;;;;;;5116805;28;20203;-56
2022/01/11 08:52:06;;;;;;;31.67;20.88;;;;;;;;;;5113830;28;20203;-58
2022/01/11 08:54:34;;;;;;;37.05;22.83;;;;;;;;;;5111154;28;20203;-58
2022/01/11 08:57:01;;;;;;;39.83;21.88;;;;;;;;;;5116773;28;20210;-55
2022/01/11 08:59:27;;;;;;;39.42;23.00;;;;;;;;;;5116397;28;20226;-55
2022/01/11 09:01:55;;;;;;;36.35;22.80;;;;;;;;;;5106459;28;20208;-57
2022/01/11 09:04:22;;;;;;;41.92;22.33;;;;;;;;;;5106354;28;20356;-57
2022/01/11 09:06:49;;;;;;;36.30;21.42;;;;;;;;;;5115517;28;20507;-56
2022/01/11 09:09:15;;;;;;;35.75;22.58;;;;;;;;;;5115716;28;20239;-55
2022/01/11 09:11:43;;;;;;;33.60;20.70;;;;;;;;;;5109921;28;20522;-55
2022/01/11 09:14:10;;;;;;;35.47;21.15;;;;;;;;;;5103926;28;20215;-55
2022/01/11 09:16:36;;;;;;;29.33;20.20;;;;;;;;;;5115235;28;20249;-57
2022/01/11 09:19:03;;;;;;;39.42;23.08;;;;;;;;;;5115826;28;20754;-56
2022/01/11 09:21:31;;;;;;;46.53;26.33;;;;;;;;;;5114853;28;20519;-55
2022/01/11 09:23:57;;;;;;;51.03;27.25;;;;;;;;;;5115679;28;20207;-55
2022/01/11 09:26:23;;;;;;;43.50;26.88;;;;;;;;;;5121118;28;20519;-56
2022/01/11 09:28:52;;;;;;;40.17;24.33;;;;;;;;;;5095906;28;20242;-57
2022/01/11 09:31:18;;;;;;;38.50;23.00;;;;;;;;;;5096979;28;20202;-56
2022/01/11 09:33:44;;;;;;;41.22;24.67;;;;;;;;;;5098771;28;20545;-56
2022/01/11 09:36:11;;;;;;;38.20;23.75;;;;;;;;;;5114392;28;20203;-56
2022/01/11 09:38:37;;;;;;;33.88;21.90;;;;;;;;;;5116230;28;20553;-56
2022/01/11 09:41:04;;;;;;;33.58;21.75;;;;;;;;;;5115694;28;20272;-56
2022/01/11 09:43:30;;;;;;;36.67;23.02;;;;;;;;;;5115722;28;20239;-57
2022/01/11 09:45:58;;;;;;;33.67;22.05;;;;;;;;;;5114548;28;20299;-55
2022/01/11 09:48:27;;;;;;;37.83;22.20;;;;;;;;;;5116219;28;20207;-54
2022/01/11 09:50:53;;;;;;;35.75;20.90;;;;;;;;;;5115937;28;20405;-56
2022/01/11 09:53:20;;;;;;;34.20;22.20;;;;;;;;;;5100155;28;20211;-56
2022/01/11 09:55:46;;;;;;;35.30;22.10;;;;;;;;;;5097894;28;20207;-56
2022/01/11 09:58:13;;;;;;;36.70;22.15;;;;;;;;;;5115866;28;20242;-55
2022/01/11 10:00:40;;;;;;;35.40;20.83;;;;;;;;;;5115578;28;20207;-55
2022/01/11 10:03:08;;;;;;;35.90;21.27;;;;;;;;;;5107642;28;20584;-56
2022/01/11 10:05:35;;;;;;;26.75;18.60;;;;;;;;;;5094771;28;20242;-54
2022/01/11 10:08:17;;;;;;;28.88;19.75;;;;;;;;;;5109859;28;20207;-55
2022/01/11 10:10:45;;;;;;;28.88;17.95;;;;;;;;;;5129035;28;20202;-55
2022/01/11 10:13:27;;;;;;;30.77;18.08;;;;;;;;;;5120946;28;20203;-58
2022/01/11 10:15:55;;;;;;;26.75;17.77;;;;;;;;;;5115393;28;20376;-57
2022/01/11 10:18:34;;;;;;;28.70;17.13;;;;;;;;;;5114409;28;20257;-59
2022/01/11 10:21:00;;;;;;;28.45;18.85;;;;;;;;;;5115144;28;20218;-57
2022/01/11 10:23:33;;;;;;;27.77;17.30;;;;;;;;;;5119091;28;20234;-59
2022/01/11 10:25:59;;;;;;;22.05;16.08;;;;;;;;;;5131120;27;20226;-59
2022/01/11 10:28:33;;;;;;;29.27;19.42;;;;;;;;;;5124399;27;20211;-59
2022/01/11 10:30:59;;;;;;;28.70;16.90;;;;;;;;;;5098337;28;20210;-56
2022/01/11 10:33:26;;;;;;;25.92;16.30;;;;;;;;;;5098799;28;20236;-56
2022/01/11 10:35:54;;;;;;;25.45;16.95;;;;;;;;;;5098690;28;20246;-55
2022/01/11 10:38:24;;;;;;;31.27;17.42;;;;;;;;;;5113325;28;20239;-54
2022/01/11 10:40:51;;;;;;;30.13;17.92;;;;;;;;;;5107234;28;20236;-55
2022/01/11 10:43:19;;;;;;;22.65;15.55;;;;;;;;;;5100619;28;20231;-57
2022/01/11 10:45:47;;;;;;;21.10;14.57;;;;;;;;;;5098251;28;20223;-58
2022/01/11 10:48:14;;;;;;;24.02;13.57;;;;;;;;;;5101958;28;20212;-56
2022/01/11 10:50:42;;;;;;;14.98;10.25;;;;;;;;;;5105949;28;20200;-56
2022/01/11 10:53:14;;;;;;;13.50;9.65;;;;;;;;;;5098248;28;20207;-57
2022/01/11 10:55:42;;;;;;;10.18;8.00;;;;;;;;;;5097743;28;20213;-56
2022/01/11 10:58:09;;;;;;;11.40;8.20;;;;;;;;;;5098647;28;20260;-56
2022/01/11 11:00:36;;;;;;;9.00;6.80;;;;;;;;;;5116643;28;20609;-57
2022/01/11 11:03:04;;;;;;;5.55;4.10;;;;;;;;;;5118896;28;20252;-57
2022/01/11 11:05:33;;;;;;;4.72;4.32;;;;;;;;;;5117913;28;20211;-56
2022/01/11 11:08:00;;;;;;;5.18;4.68;;;;;;;;;;5118919;28;20558;-56
2022/01/11 11:10:32;;;;;;;5.40;4.93;;;;;;;;;;5117210;28;20214;-57
2022/01/11 11:12:59;;;;;;;5.35;4.93;;;;;;;;;;5118074;28;20207;-56
2022/01/11 11:15:28;;;;;;;3.97;3.58;;;;;;;;;;5118600;28;20211;-55
2022/01/11 11:17:55;;;;;;;6.38;4.45;;;;;;;;;;5118662;28;20394;-55
2022/01/11 11:20:22;;;;;;;3.70;3.40;;;;;;;;;;5117025;28;20582;-57
2022/01/11 11:22:49;;;;;;;4.05;3.75;;;;;;;;;;5118093;28;20439;-55
2022/01/11 11:25:16;;;;;;;3.67;3.35;;;;;;;;;;5123973;27;20202;-57
2022/01/11 11:27:44;;;;;;;3.75;3.55;;;;;;;;;;5122383;27;20227;-56
2022/01/11 11:30:11;;;;;;;3.30;3.08;;;;;;;;;;5117345;28;20206;-56
2022/01/11 11:32:38;;;;;;;2.75;2.55;;;;;;;;;;5117269;28;20434;-55
2022/01/11 11:35:06;;;;;;;3.17;2.75;;;;;;;;;;5116446;28;20199;-58
2022/01/11 11:37:34;;;;;;;3.75;3.05;;;;;;;;;;5117984;28;20546;-56
2022/01/11 11:40:03;;;;;;;4.47;3.38;;;;;;;;;;5125811;27;20287;-58
2022/01/11 11:42:30;;;;;;;3.85;3.60;;;;;;;;;;5116632;27;20207;-56
2022/01/11 11:44:59;;;;;;;4.47;4.00;;;;;;;;;;5116936;28;20432;-57
2022/01/11 11:47:30;;;;;;;4.97;3.75;;;;;;;;;;5117473;28;20336;-57
2022/01/11 11:49:57;;;;;;;7.15;3.42;;;;;;;;;;5117606;28;20268;-57
2022/01/11 11:52:26;;;;;;;2.38;2.28;;;;;;;;;;5116645;28;20211;-56
2022/01/11 11:54:53;;;;;;;3.15;2.63;;;;;;;;;;5116437;27;20534;-56
2022/01/11 11:57:20;;;;;;;2.47;2.38;;;;;;;;;;5117174;28;20256;-55
2022/01/11 11:59:51;;;;;;;2.67;2.58;;;;;;;;;;5106922;28;20255;-54
2022/01/11 12:02:32;;;;;;;2.83;2.63;;;;;;;;;;5109762;28;20225;-55
2022/01/11 12:04:59;;;;;;;4.35;2.58;;;;;;;;;;5116960;28;20222;-55
2022/01/11 12:07:28;;;;;;;3.15;2.90;;;;;;;;;;5128927;27;20206;-56
2022/01/11 12:09:54;;;;;;;2.88;2.65;;;;;;;;;;5125139;27;20240;-57
2022/01/11 12:12:39;;;;;;;2.83;2.63;;;;;;;;;;5115435;28;20246;-54
2022/01/11 12:15:20;;;;;;;2.75;2.30;;;;;;;;;;5116907;28;20199;-56
2022/01/11 12:17:48;;;;;;;2.88;2.65;;;;;;;;;;5116895;28;20541;-54
2022/01/11 12:20:40;;;;;;;2.65;2.45;;;;;;;;;;5116254;28;20229;-55
2022/01/11 12:23:06;;;;;;;3.90;3.60;;;;;;;;;;5115501;28;20211;-55
2022/01/11 12:25:37;;;;;;;3.80;3.28;;;;;;;;;;5125578;27;20239;-54
2022/01/11 12:28:05;;;;;;;3.42;2.75;;;;;;;;;;5122708;27;20210;-57
2022/01/11 12:30:32;;;;;;;2.72;2.53;;;;;;;;;;5096522;28;20238;-58
2022/01/11 12:33:10;;;;;;;2.92;2.70;;;;;;;;;;5099129;28;20256;-55
2022/01/11 12:35:50;;;;;;;3.03;2.85;;;;;;;;;;5116551;28;20207;-57
2022/01/11 12:38:17;;;;;;;3.13;2.92;;;;;;;;;;5117087;28;20399;-54
2022/01/11 12:40:44;;;;;;;3.60;3.40;;;;;;;;;;5116236;28;20261;-58
2022/01/11 12:43:17;;;;;;;3.38;3.17;;;;;;;;;;5115564;28;20218;-56
2022/01/11 12:46:04;;;;;;;3.45;3.25;;;;;;;;;;5115522;28;20538;-56
2022/01/11 12:48:50;;;;;;;3.53;3.33;;;;;;;;;;5105257;28;20582;-57
2022/01/11 12:51:24;;;;;;;3.30;3.00;;;;;;;;;;5117627;28;20214;-55
2022/01/11 12:53:51;;;;;;;3.63;3.25;;;;;;;;;;5118034;28;20420;-58
2022/01/11 12:56:18;;;;;;;3.45;3.20;;;;;;;;;;5108510;28;20266;-56
2022/01/11 12:58:46;;;;;;;4.40;3.42;;;;;;;;;;5118886;28;20253;-55
2022/01/11 13:01:16;;;;;;;3.60;3.30;;;;;;;;;;5114894;28;20519;-54
2022/01/11 13:03:48;;;;;;;3.70;3.40;;;;;;;;;;5118046;28;20206;-56
2022/01/11 13:06:15;;;;;;;3.65;3.45;;;;;;;;;;5117284;28;20433;-54
2022/01/11 13:08:44;;;;;;;3.78;3.47;;;;;;;;;;5118724;28;20519;-55
2022/01/11 13:11:14;;;;;;;3.60;3.35;;;;;;;;;;5118716;28;20203;-54
2022/01/11 13:13:46;;;;;;;4.03;3.67;;;;;;;;;;5119325;28;20449;-55
2022/01/11 13:16:20;;;;;;;4.95;3.80;;;;;;;;;;5111544;28;20547;-56
2022/01/11 13:18:47;;;;;;;4.40;4.00;;;;;;;;;;5112915;28;20497;-54
2022/01/11 13:21:14;;;;;;;4.97;4.15;;;;;;;;;;5118526;28;20226;-54
2022/01/11 13:23:46;;;;;;;5.03;4.43;;;;;;;;;;5118711;28;20210;-55
2022/01/11 13:26:15;;;;;;;6.03;4.35;;;;;;;;;;5115739;28;20215;-55
2022/01/11 13:28:46;;;;;;;4.88;4.47;;;;;;;;;;5118509;28;20207;-54
2022/01/11 13:31:13;;;;;;;4.82;4.25;;;;;;;;;;5118398;28;20218;-56
2022/01/11 13:33:41;;;;;;;5.93;4.68;;;;;;;;;;5099222;28;20211;-55
2022/01/11 13:36:11;;;;;;;5.88;5.30;;;;;;;;;;5102763;28;20206;-54
2022/01/11 13:38:41;;;;;;;6.43;5.00;;;;;;;;;;5118919;28;20202;-56
2022/01/11 13:41:10;;;;;;;4.80;4.40;;;;;;;;;;5116861;28;20218;-57
2022/01/11 13:43:39;;;;;;;5.85;4.38;;;;;;;;;;5098489;28;20518;-55
2022/01/11 13:46:14;;;;;;;7.75;4.55;;;;;;;;;;5098793;28;20242;-57
2022/01/11 13:48:41;;;;;;;6.97;4.65;;;;;;;;;;5118550;28;20400;-56
2022/01/11 13:51:07;;;;;;;5.68;5.00;;;;;;;;;;5118752;28;20222;-56
2022/01/11 13:53:35;;;;;;;5.30;4.72;;;;;;;;;;5118743;28;20203;-54
2022/01/11 13:56:05;;;;;;;5.68;4.40;;;;;;;;;;5109928;28;20657;-54
2022/01/11 13:58:32;;;;;;;4.72;4.43;;;;;;;;;;5120376;28;20195;-54
2022/01/11 14:01:00;;;;;;;5.55;4.32;;;;;;;;;;5117699;28;20219;-57
2022/01/11 14:03:30;;;;;;;6.38;4.50;;;;;;;;;;5114055;28;20203;-55
2022/01/11 14:05:56;;;;;;;4.80;4.35;;;;;;;;;;5121678;28;20245;-53
2022/01/11 14:08:29;;;;;;;5.00;4.53;;;;;;;;;;5119659;28;20211;-54
2022/01/11 14:11:07;;;;;;;5.20;4.55;;;;;;;;;;5117303;28;20209;-56
2022/01/11 14:13:34;;;;;;;6.18;4.28;;;;;;;;;;5122612;28;20210;-54
2022/01/11 14:16:08;;;;;;;5.22;4.20;;;;;;;;;;5121753;28;20530;-57
2022/01/11 14:18:35;;;;;;;4.50;4.15;;;;;;;;;;5119047;28;20224;-57
2022/01/11 14:21:06;;;;;;;5.13;4.43;;;;;;;;;;5111540;28;20526;-57
2022/01/11 14:23:33;;;;;;;4.47;4.10;;;;;;;;;;5100350;28;20531;-56
2022/01/11 14:26:00;;;;;;;4.72;4.03;;;;;;;;;;5131281;27;20271;-56
2022/01/11 14:28:27;;;;;;;4.25;4.00;;;;;;;;;;5133758;27;20207;-58
2022/01/11 14:30:55;;;;;;;4.70;4.22;;;;;;;;;;5118363;28;20357;-56